Time;durP1;ratioP1;P1;durP2;ratioP2;P2;SDS_P1;SDS_P2;PMS_P1;PMS_P2;Temp;Humidity;BMP_temperature;BMP_pressure;BME280_temperature;BME280_humidity;BME280_pressure;Samples;Min_cycle;Max_cycle;Signal;HPM_P1;HPM_P2
2023/10/24 00:01:58;;;;;;;8.02;5.22;;;;;;;11.09;100.00;100127.16;5053958;28;20052;-49
2023/10/24 00:04:27;;;;;;;10.55;5.38;;;;;;;11.10;100.00;100126.22;5053986;28;20048;-49
2023/10/24 00:06:55;;;;;;;8.93;5.10;;;;;;;11.10;100.00;100119.16;5053951;28;20863;-49
2023/10/24 00:09:24;;;;;;;10.95;5.18;;;;;;;11.13;100.00;100116.25;5051076;28;20107;-49
2023/10/24 00:11:52;;;;;;;11.77;6.25;;;;;;;11.13;100.00;100108.38;5051483;28;20049;-50
2023/10/24 00:14:21;;;;;;;13.50;5.75;;;;;;;11.10;100.00;100102.53;5053895;28;20053;-48
2023/10/24 00:16:50;;;;;;;9.88;5.85;;;;;;;11.11;100.00;100119.97;5053913;28;20045;-48
2023/10/24 00:19:19;;;;;;;14.02;6.18;;;;;;;11.10;100.00;100119.16;5053636;28;20053;-47
2023/10/24 00:21:49;;;;;;;12.45;6.82;;;;;;;11.11;100.00;100107.66;5052070;28;20044;-47
2023/10/24 00:24:18;;;;;;;11.48;7.15;;;;;;;11.16;100.00;100088.88;5052809;28;20604;-49
2023/10/24 00:26:46;;;;;;;11.77;8.65;;;;;;;11.15;100.00;100085.41;5049178;28;20168;-51
2023/10/24 00:29:14;;;;;;;11.48;7.85;;;;;;;11.20;100.00;100078.94;5052148;28;20045;-48
2023/10/24 00:31:42;;;;;;;12.77;8.85;;;;;;;11.15;100.00;100084.56;5053693;28;20120;-50
2023/10/24 00:34:12;;;;;;;11.68;8.57;;;;;;;11.14;100.00;100094.25;5053335;28;20056;-48
2023/10/24 00:36:43;;;;;;;13.40;9.35;;;;;;;11.13;100.00;100095.22;5053507;28;20060;-49
2023/10/24 00:39:11;;;;;;;12.45;9.85;;;;;;;11.12;100.00;100092.69;5053460;28;20061;-48
2023/10/24 00:41:39;;;;;;;14.68;9.82;;;;;;;11.13;100.00;100089.13;5053098;28;20048;-50
2023/10/24 00:44:08;;;;;;;12.38;10.07;;;;;;;11.18;100.00;100089.59;5052847;28;20148;-48
2023/10/24 00:46:39;;;;;;;13.65;9.57;;;;;;;11.15;100.00;100089.81;5052822;28;20465;-49
2023/10/24 00:49:09;;;;;;;12.82;9.77;;;;;;;11.18;100.00;100075.59;5053150;28;20102;-49
2023/10/24 00:51:39;;;;;;;16.60;10.48;;;;;;;11.18;100.00;100079.06;5053127;28;20492;-47
2023/10/24 00:54:09;;;;;;;11.10;9.93;;;;;;;11.21;100.00;100084.09;5052997;28;20392;-49
2023/10/24 00:56:39;;;;;;;16.10;11.23;;;;;;;11.22;100.00;100082.28;5051194;28;20049;-50
2023/10/24 00:59:07;;;;;;;12.10;10.55;;;;;;;11.21;100.00;100081.44;5048281;28;20055;-48
2023/10/24 01:01:38;;;;;;;12.57;10.85;;;;;;;11.24;100.00;100081.19;5052828;28;20040;-50
2023/10/24 01:04:06;;;;;;;14.30;11.02;;;;;;;11.26;100.00;100078.44;5050432;28;20063;-48
2023/10/24 01:06:35;;;;;;;12.98;11.20;;;;;;;11.25;100.00;100074.97;5049072;28;20103;-51
2023/10/24 01:09:05;;;;;;;13.23;11.02;;;;;;;11.24;100.00;100078.56;5051553;28;20125;-49
2023/10/24 01:11:34;;;;;;;13.20;11.27;;;;;;;11.26;100.00;100073.16;5052573;28;20052;-46
2023/10/24 01:14:02;;;;;;;15.98;12.18;;;;;;;11.27;100.00;100072.22;5052638;28;20066;-55
2023/10/24 01:16:33;;;;;;;14.98;12.27;;;;;;;11.26;100.00;100076.66;5051851;28;20045;-57
2023/10/24 01:19:01;;;;;;;13.45;11.57;;;;;;;11.28;100.00;100073.91;5051336;28;20496;-55
2023/10/24 01:21:29;;;;;;;14.50;12.02;;;;;;;11.26;100.00;100081.94;5052468;28;20484;-48
2023/10/24 01:23:59;;;;;;;14.45;12.05;;;;;;;11.27;100.00;100080.13;5052623;28;20044;-49
2023/10/24 01:26:28;;;;;;;15.40;11.88;;;;;;;11.28;100.00;100085.25;5052441;28;20052;-48
2023/10/24 01:28:56;;;;;;;13.80;11.52;;;;;;;11.31;100.00;100081.53;5052339;28;20048;-48
2023/10/24 01:31:24;;;;;;;13.80;11.77;;;;;;;11.29;100.00;100078.22;5052573;28;20037;-55
2023/10/24 01:33:52;;;;;;;16.70;11.38;;;;;;;11.28;100.00;100080.00;5049488;28;20053;-55
2023/10/24 01:36:20;;;;;;;11.82;10.52;;;;;;;11.29;100.00;100075.59;5048719;28;20041;-54
2023/10/24 01:38:50;;;;;;;14.02;10.27;;;;;;;11.33;100.00;100077.84;5048901;28;20045;-56
2023/10/24 01:41:20;;;;;;;13.50;10.15;;;;;;;11.33;100.00;100082.28;5049396;28;20561;-54
2023/10/24 01:43:48;;;;;;;12.45;9.48;;;;;;;11.29;100.00;100078.22;5052229;28;20041;-55
2023/10/24 01:46:17;;;;;;;15.35;9.85;;;;;;;11.28;100.00;100074.72;5052394;28;20053;-55
2023/10/24 01:48:45;;;;;;;13.75;9.93;;;;;;;11.26;100.00;100076.66;5052347;28;20067;-56
2023/10/24 01:51:13;;;;;;;15.18;10.20;;;;;;;11.26;100.00;100076.66;5051988;28;20048;-55
2023/10/24 01:53:41;;;;;;;14.13;9.80;;;;;;;11.27;100.00;100072.22;5052085;28;20049;-55
2023/10/24 01:56:11;;;;;;;13.27;9.43;;;;;;;11.29;100.00;100065.06;5051945;28;20136;-56
2023/10/24 01:58:41;;;;;;;14.93;8.65;;;;;;;11.31;100.00;100066.56;5052205;28;20057;-53
2023/10/24 02:01:09;;;;;;;12.45;8.15;;;;;;;11.31;100.00;100063.13;5049339;28;20049;-53
2023/10/24 02:03:37;;;;;;;12.43;8.43;;;;;;;11.27;100.00;100064.31;5048626;28;20059;-56
2023/10/24 02:06:08;;;;;;;11.65;8.15;;;;;;;11.25;100.00;100061.00;5051106;28;20056;-54
2023/10/24 02:08:37;;;;;;;11.27;7.70;;;;;;;11.25;100.00;100068.88;5049106;28;20051;-47
2023/10/24 02:11:07;;;;;;;11.27;7.60;;;;;;;11.24;100.00;100065.41;5049722;28;20675;-47
2023/10/24 02:13:35;;;;;;;9.32;6.75;;;;;;;11.26;100.00;100068.75;5051795;28;20380;-48
2023/10/24 02:16:05;;;;;;;13.32;6.93;;;;;;;11.23;100.00;100066.34;5051762;28;20446;-47
2023/10/24 02:18:33;;;;;;;10.02;6.05;;;;;;;11.22;100.00;100054.19;5051592;28;20056;-51
2023/10/24 02:21:06;;;;;;;9.55;6.30;;;;;;;11.20;100.00;100045.56;5051778;28;20565;-48
2023/10/24 02:23:38;;;;;;;11.10;6.22;;;;;;;11.17;100.00;100043.19;5051640;28;20043;-49
2023/10/24 02:26:06;;;;;;;9.60;6.10;;;;;;;11.14;100.00;100052.16;5051453;28;20137;-47
2023/10/24 02:28:34;;;;;;;9.57;6.07;;;;;;;11.16;100.00;100050.22;5051362;28;20496;-49
2023/10/24 02:31:02;;;;;;;8.70;5.50;;;;;;;11.16;100.00;100041.50;5051441;28;20060;-46
2023/10/24 02:33:32;;;;;;;8.63;5.55;;;;;;;11.14;100.00;100049.53;5051439;28;20040;-55
2023/10/24 02:36:07;;;;;;;8.73;5.32;;;;;;;11.15;100.00;100056.47;5051595;28;20053;-55
2023/10/24 02:38:36;;;;;;;9.18;5.25;;;;;;;11.15;100.00;100042.44;5051612;28;20427;-56
2023/10/24 02:41:04;;;;;;;7.97;4.85;;;;;;;11.15;100.00;100045.94;5051538;28;20037;-56
2023/10/24 02:43:33;;;;;;;8.30;4.70;;;;;;;11.17;100.00;100053.69;5048644;28;20045;-55
2023/10/24 02:46:04;;;;;;;6.68;4.60;;;;;;;11.15;100.00;100051.19;5047895;28;20041;-53
2023/10/24 02:48:34;;;;;;;10.23;5.03;;;;;;;11.15;100.00;100052.97;5048175;28;20049;-54
2023/10/24 02:51:02;;;;;;;9.18;5.03;;;;;;;11.13;100.00;100049.66;5046501;28;20041;-54
2023/10/24 02:53:30;;;;;;;8.02;4.97;;;;;;;11.11;100.00;100056.81;5048640;28;20079;-55
2023/10/24 02:56:02;;;;;;;7.95;4.97;;;;;;;11.12;100.00;100064.59;5050848;28;20099;-54
2023/10/24 02:58:31;;;;;;;8.40;5.60;;;;;;;11.11;100.00;100059.44;5051757;28;20487;-53
2023/10/24 03:01:04;;;;;;;11.45;5.63;;;;;;;11.12;100.00;100061.13;5049861;28;20045;-54
2023/10/24 03:03:34;;;;;;;9.75;6.05;;;;;;;11.11;100.00;100062.94;5048311;28;20045;-57
2023/10/24 03:06:03;;;;;;;10.25;5.70;;;;;;;11.11;100.00;100067.34;5049336;28;20450;-54
2023/10/24 03:08:31;;;;;;;12.13;5.35;;;;;;;11.09;100.00;100056.13;5048019;28;20045;-53
2023/10/24 03:10:59;;;;;;;8.88;5.55;;;;;;;11.07;100.00;100065.91;5047859;28;20136;-55
2023/10/24 03:13:27;;;;;;;11.02;6.13;;;;;;;11.08;100.00;100071.03;5049645;28;20495;-54
2023/10/24 03:15:55;;;;;;;10.85;5.90;;;;;;;11.11;100.00;100062.06;5051089;28;20052;-55
2023/10/24 03:18:23;;;;;;;11.85;6.05;;;;;;;11.12;100.00;100071.66;5051395;28;20060;-53
2023/10/24 03:20:53;;;;;;;9.00;5.90;;;;;;;11.11;100.00;100076.09;5046054;28;20745;-54
2023/10/24 03:23:21;;;;;;;10.77;6.50;;;;;;;11.06;100.00;100069.53;5052355;28;20037;-54
2023/10/24 03:25:51;;;;;;;10.35;6.18;;;;;;;11.07;100.00;100065.91;5054995;28;20095;-55
2023/10/24 03:28:20;;;;;;;11.65;6.38;;;;;;;11.05;100.00;100065.22;5054936;28;20399;-54
2023/10/24 03:31:00;;;;;;;10.18;6.28;;;;;;;11.05;100.00;100059.94;5054987;28;20049;-54
2023/10/24 03:33:28;;;;;;;9.55;6.25;;;;;;;11.07;100.00;100073.81;5054683;28;20047;-55
2023/10/24 03:35:58;;;;;;;9.70;5.97;;;;;;;11.07;100.00;100071.16;5049729;28;20136;-54
2023/10/24 03:38:27;;;;;;;9.32;5.65;;;;;;;11.06;100.00;100066.91;5051511;28;20380;-54
2023/10/24 03:40:58;;;;;;;11.10;6.35;;;;;;;11.04;100.00;100066.16;5053189;28;20043;-55
2023/10/24 03:43:26;;;;;;;9.35;6.20;;;;;;;10.99;100.00;100070.00;5054458;28;20041;-56
2023/10/24 03:45:57;;;;;;;9.93;5.95;;;;;;;10.99;100.00;100080.53;5051398;28;20049;-53
2023/10/24 03:48:25;;;;;;;9.23;5.97;;;;;;;10.97;100.00;100073.69;5050528;28;20118;-54
2023/10/24 03:50:53;;;;;;;11.10;6.38;;;;;;;10.92;100.00;100068.81;5049415;28;20479;-54
2023/10/24 03:53:22;;;;;;;10.55;6.22;;;;;;;10.91;100.00;100067.13;5054455;28;20487;-55
2023/10/24 03:55:56;;;;;;;9.98;6.32;;;;;;;10.92;100.00;100074.06;5054266;28;20515;-55
2023/10/24 03:58:24;;;;;;;9.88;5.53;;;;;;;10.91;100.00;100064.50;5054398;28;20467;-55
2023/10/24 04:00:55;;;;;;;9.98;5.22;;;;;;;10.90;100.00;100070.72;5054266;28;20045;-54
2023/10/24 04:03:23;;;;;;;9.27;5.00;;;;;;;10.88;100.00;100069.16;5054109;28;20040;-55
2023/10/24 04:05:52;;;;;;;9.63;5.30;;;;;;;10.89;100.00;100062.94;5052234;28;20124;-53
2023/10/24 04:08:20;;;;;;;9.25;5.38;;;;;;;10.91;100.00;100072.41;5051083;28;20091;-56
2023/10/24 04:10:49;;;;;;;9.00;5.13;;;;;;;10.91;100.00;100064.50;5051211;28;20045;-53
2023/10/24 04:13:17;;;;;;;8.38;4.55;;;;;;;10.89;100.00;100068.22;5051565;28;20499;-54
2023/10/24 04:15:46;;;;;;;8.90;4.60;;;;;;;10.85;100.00;100078.13;5053757;28;20045;-55
2023/10/24 04:18:14;;;;;;;7.22;4.53;;;;;;;10.82;100.00;100078.38;5053930;28;20045;-53
2023/10/24 04:20:42;;;;;;;7.30;4.50;;;;;;;10.82;100.00;100086.25;5053880;28;20056;-53
2023/10/24 04:23:14;;;;;;;8.25;4.55;;;;;;;10.81;100.00;100088.06;5051246;28;20049;-53
2023/10/24 04:25:42;;;;;;;8.35;4.43;;;;;;;10.81;100.00;100080.19;5050757;28;20075;-55
2023/10/24 04:28:12;;;;;;;7.28;4.30;;;;;;;10.86;100.00;100084.25;5050485;28;20052;-54
2023/10/24 04:30:41;;;;;;;6.38;4.20;;;;;;;10.85;100.00;100078.13;5051148;28;20049;-56
2023/10/24 04:33:10;;;;;;;8.15;4.30;;;;;;;10.82;100.00;100073.97;5053699;28;20503;-55
2023/10/24 04:35:43;;;;;;;10.80;4.80;;;;;;;10.78;100.00;100071.69;5052342;28;20391;-55
2023/10/24 04:38:11;;;;;;;6.32;4.00;;;;;;;10.75;100.00;100071.94;5053958;28;20125;-54
2023/10/24 04:40:40;;;;;;;7.40;4.65;;;;;;;10.73;100.00;100069.41;5053313;28;20048;-54
2023/10/24 04:43:09;;;;;;;7.20;4.45;;;;;;;10.73;100.00;100063.31;5053268;28;20052;-53
2023/10/24 04:45:38;;;;;;;7.43;4.60;;;;;;;10.74;100.00;100062.34;5053290;28;20510;-54
2023/10/24 04:48:07;;;;;;;8.20;4.97;;;;;;;10.75;100.00;100046.44;5053438;28;20571;-53
2023/10/24 04:50:38;;;;;;;11.40;5.28;;;;;;;10.76;100.00;100065.72;5053207;28;20045;-56
2023/10/24 04:53:06;;;;;;;8.93;4.63;;;;;;;10.76;100.00;100049.94;5053266;28;20431;-53
2023/10/24 04:55:35;;;;;;;7.43;4.35;;;;;;;10.74;100.00;100046.56;5053173;28;20053;-54
2023/10/24 04:58:05;;;;;;;8.25;4.75;;;;;;;10.72;100.00;100045.88;5053045;28;20055;-55
2023/10/24 05:00:33;;;;;;;7.22;4.63;;;;;;;10.70;100.00;100038.09;5053138;28;20617;-57
2023/10/24 05:03:03;;;;;;;7.50;4.43;;;;;;;10.73;100.00;100053.66;5052941;28;20043;-54
2023/10/24 05:05:32;;;;;;;8.88;4.90;;;;;;;10.73;100.00;100050.16;5052680;28;20060;-55
2023/10/24 05:08:00;;;;;;;8.45;4.70;;;;;;;10.72;100.00;100036.19;5049430;28;20688;-55
2023/10/24 05:10:28;;;;;;;9.52;5.55;;;;;;;10.72;100.00;100038.00;5050622;28;20504;-54
2023/10/24 05:12:56;;;;;;;7.70;4.30;;;;;;;10.68;100.00;100040.00;5051912;28;20094;-56
2023/10/24 05:15:24;;;;;;;7.68;4.82;;;;;;;10.69;100.00;100033.81;5050465;28;20124;-54
2023/10/24 05:17:52;;;;;;;10.48;5.30;;;;;;;10.69;100.00;100031.19;5049745;28;20090;-55
2023/10/24 05:20:22;;;;;;;9.20;5.30;;;;;;;10.70;100.00;100034.63;5052596;28;20423;-53
2023/10/24 05:22:50;;;;;;;8.38;5.05;;;;;;;10.72;100.00;100040.63;5052488;28;20055;-55
2023/10/24 05:25:18;;;;;;;9.00;5.28;;;;;;;10.69;100.00;100046.09;5052422;28;20500;-54
2023/10/24 05:27:46;;;;;;;8.48;5.13;;;;;;;10.69;100.00;100040.84;5052555;28;20080;-55
2023/10/24 05:30:14;;;;;;;11.00;5.93;;;;;;;10.73;100.00;100043.13;5052602;28;20059;-53
2023/10/24 05:32:43;;;;;;;7.93;5.25;;;;;;;10.67;100.00;100037.50;5049569;28;20507;-54
2023/10/24 05:35:12;;;;;;;8.55;5.18;;;;;;;10.64;100.00;100035.94;5049055;28;20502;-54
2023/10/24 05:37:41;;;;;;;11.02;5.95;;;;;;;10.65;100.00;100029.75;5052430;28;20415;-54
2023/10/24 05:40:10;;;;;;;10.48;6.28;;;;;;;10.61;100.00;100039.66;5052472;28;20522;-55
2023/10/24 05:42:38;;;;;;;9.52;5.75;;;;;;;10.63;100.00;100050.03;5049288;28;20041;-53
2023/10/24 05:45:08;;;;;;;9.98;5.60;;;;;;;10.60;100.00;100048.50;5048486;28;20056;-54
2023/10/24 05:47:39;;;;;;;9.20;5.50;;;;;;;10.67;100.00;100048.03;5049014;28;20499;-54
2023/10/24 05:50:07;;;;;;;11.57;5.80;;;;;;;10.70;100.00;100051.22;5047785;28;20465;-53
2023/10/24 05:52:35;;;;;;;8.40;5.55;;;;;;;10.69;100.00;100051.34;5050921;28;20044;-54
2023/10/24 05:55:06;;;;;;;9.38;5.90;;;;;;;10.64;100.00;100044.66;5049304;28;20498;-53
2023/10/24 05:57:35;;;;;;;7.95;5.28;;;;;;;10.64;100.00;100047.28;5049591;28;20061;-55
2023/10/24 06:00:05;;;;;;;11.68;6.18;;;;;;;10.65;100.00;100048.16;5052045;28;20045;-56
2023/10/24 06:02:33;;;;;;;9.60;5.00;;;;;;;10.68;100.00;100041.81;5050575;28;20072;-54
2023/10/24 06:05:02;;;;;;;8.63;5.55;;;;;;;10.65;100.00;100025.31;5046771;28;20500;-54
2023/10/24 06:07:30;;;;;;;8.93;5.93;;;;;;;10.62;100.00;100029.97;5048805;28;20049;-54
2023/10/24 06:09:59;;;;;;;9.95;5.95;;;;;;;10.59;100.00;100035.47;5049013;28;20044;-56
2023/10/24 06:12:29;;;;;;;9.07;6.43;;;;;;;10.59;100.00;100036.31;5052052;28;20044;-55
2023/10/24 06:14:57;;;;;;;10.05;5.97;;;;;;;10.60;100.00;100043.22;5051943;28;20129;-53
2023/10/24 06:17:26;;;;;;;10.98;6.93;;;;;;;10.61;100.00;100031.75;5051806;28;20044;-54
2023/10/24 06:19:55;;;;;;;10.32;6.82;;;;;;;10.59;100.00;100046.84;5051722;28;20049;-54
2023/10/24 06:22:23;;;;;;;9.52;6.15;;;;;;;10.59;100.00;100052.09;5050302;28;20053;-55
2023/10/24 06:24:51;;;;;;;13.35;6.43;;;;;;;10.61;100.00;100058.06;5051600;28;20063;-55
2023/10/24 06:27:19;;;;;;;10.73;6.55;;;;;;;10.53;100.00;100063.06;5051754;28;20037;-53
2023/10/24 06:29:49;;;;;;;10.30;6.88;;;;;;;10.53;100.00;100057.81;5051586;28;20412;-53
2023/10/24 06:32:17;;;;;;;10.18;6.47;;;;;;;10.55;100.00;100057.69;5051620;28;20045;-54
2023/10/24 06:34:45;;;;;;;10.05;6.50;;;;;;;10.52;100.00;100064.03;5051445;28;20041;-54
2023/10/24 06:37:13;;;;;;;8.88;6.13;;;;;;;10.56;100.00;100069.91;5051780;28;20040;-55
2023/10/24 06:39:41;;;;;;;8.70;6.00;;;;;;;10.55;100.00;100071.69;5051686;28;20048;-56
2023/10/24 06:42:10;;;;;;;8.95;5.78;;;;;;;10.58;100.00;100071.44;5051593;28;20133;-55
2023/10/24 06:44:38;;;;;;;9.90;6.10;;;;;;;10.55;100.00;100073.47;5051450;28;20041;-55
2023/10/24 06:47:07;;;;;;;7.85;5.55;;;;;;;10.51;100.00;100066.78;5051351;28;20079;-54
2023/10/24 06:49:35;;;;;;;8.27;5.47;;;;;;;10.52;100.00;100060.56;5051443;28;20040;-54
2023/10/24 06:52:04;;;;;;;8.13;5.40;;;;;;;10.54;100.00;100069.16;5051336;28;20051;-55
2023/10/24 06:54:32;;;;;;;7.45;5.05;;;;;;;10.53;100.00;100063.06;5051337;28;20053;-55
2023/10/24 06:57:00;;;;;;;7.72;4.70;;;;;;;10.48;100.00;100067.84;5053410;28;20383;-55
2023/10/24 06:59:29;;;;;;;8.55;5.10;;;;;;;10.55;100.00;100076.09;5055507;28;20045;-46
2023/10/24 07:01:57;;;;;;;8.80;5.63;;;;;;;10.55;100.00;100076.97;5054992;28;20053;-47
2023/10/24 07:04:27;;;;;;;8.75;5.72;;;;;;;10.52;100.00;100063.19;5054636;28;20045;-48
2023/10/24 07:06:55;;;;;;;7.53;4.78;;;;;;;10.50;100.00;100065.94;5055037;28;20049;-45
2023/10/24 07:09:24;;;;;;;8.75;5.45;;;;;;;10.50;100.00;100073.84;5054010;28;20057;-49
2023/10/24 07:11:52;;;;;;;9.25;5.57;;;;;;;10.50;100.00;100073.84;5055084;28;20059;-47
2023/10/24 07:14:20;;;;;;;7.82;5.03;;;;;;;10.50;100.00;100079.09;5054781;28;20163;-46
2023/10/24 07:16:49;;;;;;;9.15;5.47;;;;;;;10.49;100.00;100072.16;5054962;28;20055;-46
2023/10/24 07:19:18;;;;;;;8.35;5.00;;;;;;;10.52;100.00;100077.16;5054910;28;20064;-45
2023/10/24 07:21:48;;;;;;;8.27;5.40;;;;;;;10.50;100.00;100081.72;5052829;28;20052;-45
2023/10/24 07:24:16;;;;;;;8.25;4.45;;;;;;;10.50;100.00;100063.31;5051513;28;20045;-48
2023/10/24 07:26:44;;;;;;;8.10;4.93;;;;;;;10.53;100.00;100046.47;5052288;28;20133;-45
2023/10/24 07:29:15;;;;;;;9.30;4.93;;;;;;;10.52;100.00;100045.63;5051370;28;20384;-46
2023/10/24 07:31:44;;;;;;;8.48;4.57;;;;;;;10.56;100.00;100047.06;5052124;28;20065;-46
2023/10/24 07:34:12;;;;;;;7.53;4.50;;;;;;;10.57;100.00;100045.28;5054650;28;20036;-46
2023/10/24 07:36:40;;;;;;;6.07;3.78;;;;;;;10.56;100.00;100052.31;5054754;28;20049;-47
2023/10/24 07:39:15;;;;;;;7.65;4.35;;;;;;;10.61;100.00;100058.06;5054471;28;20534;-44
2023/10/24 07:41:44;;;;;;;6.88;4.30;;;;;;;10.62;100.00;100058.88;5054507;28;20049;-47
2023/10/24 07:44:13;;;;;;;7.32;4.25;;;;;;;10.65;100.00;100056.03;5054282;28;20041;-46
2023/10/24 07:46:41;;;;;;;6.90;4.07;;;;;;;10.62;100.00;100058.88;5054331;28;20459;-47
2023/10/24 07:49:10;;;;;;;6.25;3.75;;;;;;;10.61;100.00;100062.50;5054343;28;20052;-47
2023/10/24 07:51:38;;;;;;;7.18;3.88;;;;;;;10.64;100.00;100062.25;5054478;28;20585;-47
2023/10/24 07:54:06;;;;;;;6.75;3.70;;;;;;;10.67;100.00;100063.81;5053949;28;20064;-46
2023/10/24 07:56:38;;;;;;;6.57;3.85;;;;;;;10.68;100.00;100055.78;5054243;28;20118;-46
2023/10/24 07:59:07;;;;;;;5.60;3.50;;;;;;;10.72;100.00;100056.41;5054194;28;20049;-49
2023/10/24 08:01:38;;;;;;;6.50;3.53;;;;;;;10.74;100.00;100046.56;5054288;28;20078;-47
2023/10/24 08:04:06;;;;;;;5.72;3.63;;;;;;;10.73;100.00;100050.16;5054080;28;20372;-46
2023/10/24 08:06:35;;;;;;;6.65;3.75;;;;;;;10.72;100.00;100041.44;5053952;28;20394;-50
2023/10/24 08:09:03;;;;;;;6.80;3.97;;;;;;;10.78;100.00;100040.13;5053869;28;20079;-46
2023/10/24 08:11:32;;;;;;;7.50;4.05;;;;;;;10.78;100.00;100034.84;5054089;28;20446;-48
2023/10/24 08:14:05;;;;;;;6.55;3.53;;;;;;;10.76;100.00;100034.97;5053899;28;20049;-49
2023/10/24 08:16:34;;;;;;;6.97;4.32;;;;;;;10.76;100.00;100024.47;5053781;28;20049;-48
2023/10/24 08:19:03;;;;;;;7.75;4.32;;;;;;;10.78;100.00;100029.59;5053571;28;20033;-45
2023/10/24 08:21:31;;;;;;;6.78;4.05;;;;;;;10.77;100.00;100028.78;5053818;28;20045;-47
2023/10/24 08:24:00;;;;;;;8.52;4.55;;;;;;;10.80;100.00;100028.53;5053560;28;20368;-45
2023/10/24 08:26:28;;;;;;;6.88;4.40;;;;;;;10.85;100.00;100025.53;5053683;28;20080;-48
2023/10/24 08:28:58;;;;;;;9.35;5.38;;;;;;;10.85;100.00;100028.16;5053656;28;20118;-47
2023/10/24 08:31:28;;;;;;;8.73;5.20;;;;;;;10.94;100.00;100031.84;5053540;28;20045;-47
2023/10/24 08:33:56;;;;;;;8.23;5.60;;;;;;;11.01;100.00;100033.03;5053593;28;20514;-46
2023/10/24 08:36:26;;;;;;;9.90;6.07;;;;;;;11.06;100.00;100027.44;5053566;28;20064;-45
2023/10/24 08:38:55;;;;;;;9.27;6.10;;;;;;;11.13;100.00;100025.97;5052923;28;20045;-46
2023/10/24 08:41:23;;;;;;;10.10;6.40;;;;;;;11.22;100.00;100025.22;5053065;28;20131;-46
2023/10/24 08:43:54;;;;;;;9.45;6.15;;;;;;;11.43;100.00;100027.91;5051808;28;20130;-46
2023/10/24 08:46:23;;;;;;;10.57;5.97;;;;;;;11.60;100.00;100031.78;5053142;28;20084;-44
2023/10/24 08:48:54;;;;;;;13.27;7.15;;;;;;;11.71;100.00;100035.31;5051967;28;20045;-47
2023/10/24 08:51:22;;;;;;;11.43;7.28;;;;;;;11.81;100.00;100044.97;5051853;28;20076;-46
2023/10/24 08:53:50;;;;;;;12.35;6.80;;;;;;;11.82;100.00;100057.19;5050625;28;20494;-46
2023/10/24 08:56:22;;;;;;;10.13;6.68;;;;;;;11.86;100.00;100068.28;5050273;28;20048;-45
2023/10/24 08:58:53;;;;;;;13.50;6.60;;;;;;;11.94;100.00;100068.56;5052994;28;20480;-46
2023/10/24 09:01:26;;;;;;;13.32;7.05;;;;;;;12.04;100.00;100067.75;5051740;28;20075;-47
2023/10/24 09:03:57;;;;;;;10.30;7.25;;;;;;;12.02;100.00;100069.69;5052937;28;20049;-48
2023/10/24 09:06:25;;;;;;;10.93;7.28;;;;;;;12.04;100.00;100075.66;5051455;28;20479;-46
2023/10/24 09:08:53;;;;;;;12.05;7.20;;;;;;;12.05;100.00;100065.00;5052606;28;20122;-47
2023/10/24 09:11:24;;;;;;;10.93;6.82;;;;;;;12.13;100.00;100054.66;5048577;28;20056;-46
2023/10/24 09:13:54;;;;;;;12.30;7.10;;;;;;;12.11;100.00;100056.59;5049145;28;20080;-46
2023/10/24 09:16:26;;;;;;;12.02;6.97;;;;;;;12.08;100.00;100066.53;5051282;28;20056;-46
2023/10/24 09:18:56;;;;;;;10.70;6.95;;;;;;;12.10;100.00;100052.28;5051970;28;20506;-47
2023/10/24 09:21:24;;;;;;;10.70;7.65;;;;;;;12.25;100.00;100054.59;5052752;28;20356;-47
2023/10/24 09:23:53;;;;;;;11.00;7.03;;;;;;;12.37;100.00;100045.63;5052506;28;20079;-46
2023/10/24 09:26:22;;;;;;;10.20;7.63;;;;;;;12.48;100.00;100036.81;5052312;28;20053;-45
2023/10/24 09:28:57;;;;;;;11.07;6.60;;;;;;;12.55;100.00;100035.31;5052415;28;20052;-47
2023/10/24 09:31:26;;;;;;;10.35;6.32;;;;;;;12.66;100.00;100035.19;5052483;28;20064;-46
2023/10/24 09:33:56;;;;;;;12.85;7.13;;;;;;;12.75;100.00;100027.44;5052347;28;20559;-44
2023/10/24 09:36:25;;;;;;;11.68;7.47;;;;;;;12.84;100.00;100035.41;5052530;28;20052;-46
2023/10/24 09:38:54;;;;;;;11.90;6.72;;;;;;;12.97;100.00;100034.34;5052297;28;20049;-46
2023/10/24 09:41:39;;;;;;;10.57;6.68;;;;;;;13.06;100.00;100038.81;5052296;28;20057;-45
2023/10/24 09:44:07;;;;;;;10.57;6.22;;;;;;;13.25;100.00;100027.44;5052450;28;20056;-46
2023/10/24 09:46:36;;;;;;;11.52;6.30;;;;;;;13.58;100.00;100020.13;5052115;28;20341;-47
2023/10/24 09:49:07;;;;;;;10.82;6.15;;;;;;;13.81;100.00;100014.53;5049903;28;20053;-46
2023/10/24 09:51:36;;;;;;;9.90;5.70;;;;;;;14.08;100.00;100032.28;5048498;28;20064;-46
2023/10/24 09:54:07;;;;;;;9.77;5.68;;;;;;;14.36;100.00;100040.31;5050649;28;20527;-47
2023/10/24 09:56:35;;;;;;;9.40;4.93;;;;;;;14.46;100.00;100034.97;5067301;28;20729;-47
2023/10/24 09:59:03;;;;;;;9.48;5.35;;;;;;;14.51;100.00;100038.84;5050630;28;20059;-46
2023/10/24 10:01:32;;;;;;;10.43;5.28;;;;;;;14.59;100.00;100046.06;5051982;28;20064;-45
2023/10/24 10:04:03;;;;;;;9.80;5.20;;;;;;;14.58;100.00;100056.81;5051929;28;20053;-46
2023/10/24 10:06:34;;;;;;;8.43;4.93;;;;;;;14.52;100.00;100048.47;5050353;28;20049;-47
2023/10/24 10:09:23;;;;;;;9.02;5.63;;;;;;;14.55;100.00;100052.63;5051741;28;20562;-45
2023/10/24 10:11:54;;;;;;;7.63;4.93;;;;;;;14.51;100.00;100056.56;5051644;28;20199;-47
2023/10/24 10:14:38;;;;;;;9.20;5.35;;;;;;;14.43;100.00;100051.16;5051788;28;20049;-46
2023/10/24 10:17:14;;;;;;;7.60;4.45;;;;;;;14.43;100.00;100046.69;5051689;28;20049;-45
2023/10/24 10:20:09;;;;;;;11.07;5.07;;;;;;;14.51;100.00;100054.72;5051789;28;20140;-46
2023/10/24 10:22:53;;;;;;;7.57;4.28;;;;;;;14.28;100.00;100053.41;5044388;28;20088;-45
2023/10/24 10:25:52;;;;;;;8.18;4.28;;;;;;;14.21;100.00;100047.88;5048241;28;20128;-46
2023/10/24 10:28:32;;;;;;;6.20;3.90;;;;;;;14.13;100.00;100045.09;5051507;28;20055;-45
2023/10/24 10:31:07;;;;;;;7.20;4.70;;;;;;;14.04;100.00;100046.78;5051375;28;20083;-46
2023/10/24 10:33:57;;;;;;;8.23;4.38;;;;;;;14.19;100.00;100041.88;5051653;28;20140;-45
2023/10/24 10:36:26;;;;;;;6.68;4.13;;;;;;;14.15;100.00;100032.56;5050009;28;20053;-45
2023/10/24 10:39:00;;;;;;;9.40;4.35;;;;;;;14.14;100.00;100036.19;5051359;28;20403;-46
2023/10/24 10:41:36;;;;;;;6.22;3.70;;;;;;;14.30;100.00;100031.16;5051476;28;20048;-45
2023/10/24 10:44:38;;;;;;;8.85;3.80;;;;;;;14.56;100.00;100027.84;5050177;28;20496;-48
2023/10/24 10:47:13;;;;;;;7.55;3.67;;;;;;;14.53;100.00;100030.78;5047929;28;20131;-45
2023/10/24 10:49:47;;;;;;;8.00;3.95;;;;;;;14.57;100.00;100032.16;5047573;28;20045;-46
2023/10/24 10:52:46;;;;;;;6.38;3.72;;;;;;;14.60;100.00;100021.28;5051386;28;20045;-45
2023/10/24 10:55:45;;;;;;;7.18;3.83;;;;;;;14.53;100.00;100022.84;5047279;28;20515;-46
2023/10/24 10:58:22;;;;;;;7.32;3.55;;;;;;;14.46;100.00;100017.28;5050726;28;20107;-45
2023/10/24 11:01:03;;;;;;;6.35;3.47;;;;;;;14.43;100.00;100017.59;5051137;28;20080;-46
2023/10/24 11:03:43;;;;;;;6.50;3.60;;;;;;;14.47;100.00;100012.84;5049844;28;20053;-45
2023/10/24 11:06:16;;;;;;;6.72;3.53;;;;;;;14.51;100.00;100016.88;5051201;28;20507;-45
2023/10/24 11:08:48;;;;;;;6.90;3.85;;;;;;;14.43;100.00;100014.94;5051220;28;20132;-44
2023/10/24 11:11:21;;;;;;;7.78;4.05;;;;;;;14.45;100.00;100006.84;5051483;28;20064;-44
2023/10/24 11:13:51;;;;;;;8.73;4.28;;;;;;;14.51;100.00;100008.94;5051365;28;20144;-45
2023/10/24 11:16:20;;;;;;;6.63;3.90;;;;;;;14.45;100.00;100010.34;5051057;28;20041;-47
2023/10/24 11:19:05;;;;;;;8.70;5.13;;;;;;;14.31;100.00;100011.63;5048428;28;20057;-46
2023/10/24 11:21:34;;;;;;;7.95;4.20;;;;;;;14.26;100.00;100016.53;5046215;28;20053;-48
2023/10/24 11:24:02;;;;;;;6.55;3.80;;;;;;;14.13;100.00;100008.91;5049969;28;20084;-46
2023/10/24 11:26:32;;;;;;;6.45;3.97;;;;;;;14.15;100.00;100006.13;5050739;28;20048;-46
2023/10/24 11:29:00;;;;;;;6.68;3.72;;;;;;;14.23;100.00;100008.06;5050890;28;20510;-45